createdAt,value
2022-10-05T00:01:35.532Z,101641.63
2022-10-05T00:04:33.710Z,101647.59
2022-10-05T00:07:17.755Z,101658.88
2022-10-05T00:09:52.985Z,101644.19
2022-10-05T00:12:27.528Z,101641.63
2022-10-05T00:15:03.421Z,101638.16
2022-10-05T00:17:33.681Z,101637.25
2022-10-05T00:20:01.358Z,101636.38
2022-10-05T00:22:34.999Z,101626.94
2022-10-05T00:25:17.728Z,101632.06
2022-10-05T00:27:57.530Z,101632.06
2022-10-05T00:30:33.367Z,101623.44
2022-10-05T00:33:01.163Z,101624.28
2022-10-05T00:35:37.129Z,101616.50
2022-10-05T00:38:06.441Z,101623.44
2022-10-05T00:40:57.814Z,101624.28
2022-10-05T00:44:04.005Z,101628.63
2022-10-05T00:46:44.099Z,101640.75
2022-10-05T00:49:37.154Z,101633.84
2022-10-05T00:52:24.157Z,101627.00
2022-10-05T00:54:59.865Z,101612.34
2022-10-05T00:57:51.404Z,101635.59
2022-10-05T01:00:25.604Z,101621.81
2022-10-05T01:03:31.955Z,101624.41
2022-10-05T01:06:32.018Z,101630.44
2022-10-05T01:09:14.641Z,101628.75
2022-10-05T01:11:58.374Z,101621.88
2022-10-05T01:14:54.440Z,101622.72
2022-10-05T01:17:34.149Z,101616.72
2022-10-05T01:20:23.016Z,101629.63
2022-10-05T01:23:29.470Z,101618.41
2022-10-05T01:26:09.058Z,101624.44
2022-10-05T01:28:51.025Z,101610.63
2022-10-05T01:31:36.107Z,101601.97
2022-10-05T01:34:20.604Z,101600.25
2022-10-05T01:37:08.124Z,101599.34
2022-10-05T01:40:13.653Z,101594.16
2022-10-05T01:43:04.114Z,101595.06
2022-10-05T01:46:05.483Z,101595.13
2022-10-05T01:48:54.089Z,101594.22
2022-10-05T01:51:56.035Z,101595.13
2022-10-05T01:54:27.439Z,101595.13
2022-10-05T01:57:22.231Z,101596.84
2022-10-05T02:00:11.541Z,101585.63
2022-10-05T02:03:00.568Z,101580.41
2022-10-05T02:05:48.859Z,101579.59
2022-10-05T02:08:35.326Z,101585.59
2022-10-05T02:11:27.311Z,101586.44
2022-10-05T02:14:38.185Z,101581.25
2022-10-05T02:17:32.401Z,101582.19
2022-10-05T02:20:08.555Z,101566.66
2022-10-05T02:22:56.433Z,101573.47
2022-10-05T02:25:39.714Z,101563.13
2022-10-05T02:28:52.312Z,101573.47
2022-10-05T02:31:47.559Z,101572.66
2022-10-05T02:34:43.800Z,101577.81
2022-10-05T02:37:36.732Z,101560.56
2022-10-05T02:40:17.626Z,101566.56
2022-10-05T02:42:55.268Z,101563.09
2022-10-05T02:45:52.509Z,101565.69
2022-10-05T02:48:57.413Z,101569.97
2022-10-05T02:51:45.952Z,101557.03
2022-10-05T02:55:09.997Z,101543.25
2022-10-05T02:58:00.396Z,101554.44
2022-10-05T03:00:35.391Z,101544.91
2022-10-05T03:03:20.017Z,101539.75
2022-10-05T03:06:27.600Z,101553.56
2022-10-05T03:09:09.561Z,101541.47
2022-10-05T03:11:50.165Z,101541.47
2022-10-05T03:14:57.672Z,101543.16
2022-10-05T03:17:37.602Z,101535.38
2022-10-05T03:20:54.037Z,101535.41
2022-10-05T03:23:46.379Z,101537.09
2022-10-05T03:26:41.914Z,101536.25
2022-10-05T03:29:50.505Z,101532.81
2022-10-05T03:32:21.689Z,101526.75
2022-10-05T03:35:14.395Z,101521.53
2022-10-05T03:38:32.196Z,101515.44
2022-10-05T03:41:24.950Z,101517.22
2022-10-05T03:44:14.327Z,101509.44
2022-10-05T03:47:21.591Z,101511.09
2022-10-05T03:50:15.279Z,101503.31
2022-10-05T03:53:30.167Z,101506.81
2022-10-05T03:56:27.339Z,101499.91
2022-10-05T04:02:14.019Z,101499.00
2022-10-05T04:05:19.009Z,101502.41
2022-10-05T04:08:06.010Z,101496.41
2022-10-05T04:10:48.357Z,101499.00
2022-10-05T04:13:44.013Z,101491.25
2022-10-05T04:16:14.174Z,101489.47
2022-10-05T04:19:04.467Z,101491.22
2022-10-05T04:25:15.993Z,101493.81
2022-10-05T04:28:32.346Z,101498.13
2022-10-05T04:31:10.192Z,101497.25
2022-10-05T04:33:37.032Z,101492.94
2022-10-05T04:36:31.942Z,101498.09
2022-10-05T04:39:48.168Z,101492.03
2022-10-05T04:42:37.854Z,101504.13
2022-10-05T04:45:25.161Z,101505.88
2022-10-05T04:48:11.257Z,101498.97
2022-10-05T04:51:19.567Z,101504.16
2022-10-05T04:53:53.332Z,101503.28
2022-10-05T04:56:23.731Z,101496.38
2022-10-05T04:59:32.845Z,101508.50
2022-10-05T05:02:18.216Z,101497.25
2022-10-05T05:05:08.608Z,101498.97
2022-10-05T05:07:45.825Z,101501.56
2022-10-05T05:10:29.761Z,101502.41
2022-10-05T05:13:28.101Z,101500.69
2022-10-05T05:16:23.166Z,101514.50
2022-10-05T05:19:18.341Z,101503.28
2022-10-05T05:22:03.008Z,101498.97
2022-10-05T05:24:35.738Z,101506.75
2022-10-05T05:27:42.858Z,101505.88
2022-10-05T05:30:18.668Z,101504.16
2022-10-05T05:33:07.185Z,101506.72
2022-10-05T05:36:06.492Z,101511.91
2022-10-05T05:39:05.467Z,101505.81
2022-10-05T05:42:01.789Z,101506.72
2022-10-05T05:44:42.751Z,101504.13
2022-10-05T05:47:24.279Z,101504.97
2022-10-05T05:50:07.268Z,101498.94
2022-10-05T05:52:49.597Z,101504.94
2022-10-05T05:55:30.193Z,101507.53
2022-10-05T05:58:04.013Z,101504.09
2022-10-05T06:00:37.673Z,101500.59
2022-10-05T06:03:13.184Z,101502.34
2022-10-05T06:05:49.817Z,101501.50
2022-10-05T06:08:24.992Z,101501.50
2022-10-05T06:11:05.728Z,101500.63
2022-10-05T06:13:40.215Z,101509.28
2022-10-05T06:16:18.789Z,101510.97
2022-10-05T06:18:52.058Z,101502.34
2022-10-05T06:21:27.709Z,101507.53
2022-10-05T06:24:05.081Z,101506.69
2022-10-05T06:27:27.283Z,101506.66
2022-10-05T06:30:05.245Z,101511.88
2022-10-05T06:32:52.465Z,101517.03
2022-10-05T06:35:27.785Z,101512.69
2022-10-05T06:38:07.852Z,101509.25
2022-10-05T06:40:59.600Z,101509.25
2022-10-05T06:43:48.203Z,101504.00
2022-10-05T06:46:59.503Z,101502.25
2022-10-05T06:49:35.517Z,101502.25
2022-10-05T06:52:10.886Z,101507.44
2022-10-05T06:54:56.416Z,101507.41
2022-10-05T06:57:38.619Z,101499.63
2022-10-05T07:00:17.423Z,101498.78
2022-10-05T07:02:53.780Z,101499.59
2022-10-05T07:05:45.255Z,101506.47
2022-10-05T07:08:20.400Z,101511.69
2022-10-05T07:10:47.251Z,101504.78
2022-10-05T07:13:48.858Z,101511.66
2022-10-05T07:16:33.697Z,101507.31
2022-10-05T07:19:22.081Z,101505.59
2022-10-05T07:22:13.978Z,101497.78
2022-10-05T07:24:59.498Z,101498.59
2022-10-05T07:27:32.293Z,101496.00
2022-10-05T07:30:01.474Z,101502.06
2022-10-05T07:32:36.734Z,101500.31
2022-10-05T07:35:36.754Z,101502.84
2022-10-05T07:38:32.691Z,101501.06
2022-10-05T07:41:07.381Z,101506.25
2022-10-05T07:44:03.776Z,101501.03
2022-10-05T07:46:49.405Z,101501.88
2022-10-05T07:49:45.436Z,101504.47
2022-10-05T07:52:31.067Z,101499.25
2022-10-05T07:55:19.330Z,101494.03
2022-10-05T07:58:21.120Z,101497.44
2022-10-05T08:01:02.358Z,101498.25
2022-10-05T08:03:39.831Z,101502.56
2022-10-05T08:06:11.688Z,101495.59
2022-10-05T08:08:51.598Z,101503.34
2022-10-05T08:11:25.890Z,101499.84
2022-10-05T08:14:24.880Z,101498.94
2022-10-05T08:16:55.791Z,101497.22
2022-10-05T08:19:32.170Z,101503.16
2022-10-05T08:22:06.274Z,101505.72
2022-10-05T08:24:52.385Z,101509.13
2022-10-05T08:27:27.782Z,101502.16
2022-10-05T08:30:04.571Z,101496.91
2022-10-05T08:32:43.807Z,101502.91
2022-10-05T08:35:31.030Z,101500.28
2022-10-05T08:37:58.150Z,101496.75
2022-10-05T08:40:27.979Z,101497.56
2022-10-05T08:42:57.807Z,101500.13
2022-10-05T08:45:30.560Z,101493.13
2022-10-05T08:48:25.880Z,101491.38
2022-10-05T08:51:33.439Z,101499.97
2022-10-05T08:54:06.454Z,101496.41
2022-10-05T08:57:01.312Z,101495.47
2022-10-05T08:59:58.841Z,101486.75
2022-10-05T09:02:55.738Z,101479.72
2022-10-05T09:05:28.611Z,101486.59
2022-10-05T09:08:14.003Z,101477.06
2022-10-05T09:10:59.310Z,101481.25
2022-10-05T09:13:56.810Z,101476.84
2022-10-05T09:16:48.095Z,101475.91
2022-10-05T09:19:30.078Z,101468.00
2022-10-05T09:22:35.188Z,101478.28
2022-10-05T09:25:42.761Z,101472.13
2022-10-05T09:28:36.573Z,101462.50
2022-10-05T09:31:22.543Z,101470.19
2022-10-05T09:34:37.193Z,101464.84
2022-10-05T09:37:33.543Z,101467.34
2022-10-05T09:40:33.038Z,101465.50
2022-10-05T09:43:11.958Z,101461.94
2022-10-05T09:46:03.663Z,101460.09
2022-10-05T09:48:30.388Z,101459.13
2022-10-05T09:51:15.386Z,101462.50
2022-10-05T09:54:03.506Z,101460.59
2022-10-05T09:56:44.014Z,101459.69
2022-10-05T09:59:44.911Z,101457.81
2022-10-05T10:02:43.969Z,101452.50
2022-10-05T10:05:39.369Z,101455.00
2022-10-05T10:08:15.427Z,101451.44
2022-10-05T10:11:08.457Z,101450.47
2022-10-05T10:13:55.780Z,101453.81
2022-10-05T10:16:43.978Z,101447.63
2022-10-05T10:19:47.918Z,101442.31
2022-10-05T10:22:17.662Z,101444.81
2022-10-05T10:25:19.247Z,101435.97
2022-10-05T10:28:13.320Z,101439.28
2022-10-05T10:30:51.908Z,101433.91
2022-10-05T10:33:49.764Z,101448.41
2022-10-05T10:36:28.567Z,101440.50
2022-10-05T10:39:10.212Z,101437.72
2022-10-05T10:41:46.000Z,101435.88
2022-10-05T10:44:37.509Z,101441.78
2022-10-05T10:47:47.279Z,101437.31
2022-10-05T10:50:40.681Z,101430.25
2022-10-05T10:53:29.749Z,101424.84
2022-10-05T10:56:20.724Z,101416.91
2022-10-05T10:59:08.766Z,101419.31
2022-10-05T11:01:51.142Z,101407.81
2022-10-05T11:04:40.173Z,101398.94
2022-10-05T11:07:19.074Z,101397.88
2022-10-05T11:09:51.808Z,101384.66
2022-10-05T11:13:03.701Z,101369.72
2022-10-05T11:15:30.511Z,101372.06
2022-10-05T11:18:35.989Z,101370.16
2022-10-05T11:21:21.642Z,101362.03
2022-10-05T11:24:16.078Z,101353.13
2022-10-05T11:27:26.995Z,101351.16
2022-10-05T11:30:03.350Z,101343.97
2022-10-05T11:33:11.342Z,101345.47
2022-10-05T11:35:44.298Z,101338.34
2022-10-05T11:38:57.063Z,101319.88
2022-10-05T11:42:05.142Z,101323.94
2022-10-05T11:45:15.851Z,101315.97
2022-10-05T11:48:00.427Z,101320.09
2022-10-05T11:51:08.678Z,101307.66
2022-10-05T11:53:53.172Z,101308.47
2022-10-05T11:56:42.299Z,101296.13
2022-10-05T11:59:19.604Z,101296.00
2022-10-05T12:02:24.049Z,101294.13
2022-10-05T12:05:11.215Z,101289.63
2022-10-05T12:07:46.846Z,101289.50
2022-10-05T12:10:27.665Z,101282.41
2022-10-05T12:13:19.448Z,101271.78
2022-10-05T12:15:52.800Z,101268.25
2022-10-05T12:18:25.697Z,101264.69
2022-10-05T12:21:04.627Z,101245.34
2022-10-05T12:23:43.215Z,101238.22
2022-10-05T12:26:27.720Z,101234.59
2022-10-05T12:29:02.073Z,101243.09
2022-10-05T12:31:45.963Z,101236.03
2022-10-05T12:34:12.941Z,101234.16
2022-10-05T12:37:03.628Z,101234.06
2022-10-05T12:39:54.532Z,101221.63
2022-10-05T12:42:51.821Z,101219.69
2022-10-05T12:46:03.837Z,101209.94
2022-10-05T12:48:49.195Z,101203.63
2022-10-05T12:51:28.191Z,101199.19
2022-10-05T12:54:03.309Z,101207.56
2022-10-05T12:56:47.749Z,101189.19
2022-10-05T12:59:20.684Z,101180.16
2022-10-05T13:01:52.301Z,101179.19
2022-10-05T13:04:43.550Z,101178.09
2022-10-05T13:07:48.712Z,101169.09
2022-10-05T13:10:24.747Z,101164.63
2022-10-05T13:13:07.403Z,101162.72
2022-10-05T13:16:00.198Z,101151.19
2022-10-05T13:18:40.971Z,101147.50
2022-10-05T13:21:21.928Z,101143.78
2022-10-05T13:24:00.453Z,101141.91
2022-10-05T13:26:37.151Z,101135.69
2022-10-05T13:29:25.953Z,101127.69
2022-10-05T13:32:00.223Z,101136.25
2022-10-05T13:34:37.232Z,101134.34
2022-10-05T13:37:20.054Z,101129.84
2022-10-05T13:39:59.549Z,101128.84
2022-10-05T13:42:41.742Z,101127.81
2022-10-05T13:45:24.614Z,101127.72
2022-10-05T13:48:06.818Z,101130.16
2022-10-05T13:50:42.811Z,101123.00
2022-10-05T13:53:18.544Z,101132.41
2022-10-05T13:55:47.682Z,101128.81
2022-10-05T13:58:54.252Z,101127.84
2022-10-05T14:01:34.807Z,101125.06
2022-10-05T14:04:20.609Z,101125.88
2022-10-05T14:06:48.787Z,101114.50
2022-10-05T14:09:25.480Z,101125.59
2022-10-05T14:12:12.429Z,101123.72
2022-10-05T14:14:51.190Z,101114.81
2022-10-05T14:17:33.383Z,101111.25
2022-10-05T14:20:13.827Z,101122.50
2022-10-05T14:22:42.132Z,101110.28
2022-10-05T14:25:09.174Z,101124.94
2022-10-05T14:27:50.704Z,101118.06
2022-10-05T14:30:24.330Z,101120.47
2022-10-05T14:32:56.373Z,101127.31
2022-10-05T14:35:25.848Z,101136.78
2022-10-05T14:38:00.694Z,101143.72
2022-10-05T14:40:37.972Z,101133.16
2022-10-05T14:43:31.259Z,101133.91
2022-10-05T14:46:14.754Z,101138.16
2022-10-05T14:48:44.090Z,101143.31
2022-10-05T14:51:24.053Z,101144.09
2022-10-05T14:54:02.043Z,101137.78
2022-10-05T14:57:04.507Z,101147.34
2022-10-05T14:59:43.457Z,101141.25
2022-10-05T15:02:33.717Z,101155.16
2022-10-05T15:05:15.323Z,101144.56
2022-10-05T15:07:57.235Z,101153.31
2022-10-05T15:10:40.567Z,101151.56
2022-10-05T15:13:11.843Z,101161.09
2022-10-05T15:15:44.749Z,101163.72
2022-10-05T15:18:42.262Z,101160.25
2022-10-05T15:21:24.084Z,101168.94
2022-10-05T15:24:00.211Z,101164.53
2022-10-05T15:26:45.866Z,101168.84
2022-10-05T15:29:47.330Z,101165.38
2022-10-05T15:32:21.896Z,101164.38
2022-10-05T15:35:29.621Z,101172.25
2022-10-05T15:37:59.812Z,101174.94
2022-10-05T15:40:39.741Z,101186.13
2022-10-05T15:43:14.009Z,101170.66
2022-10-05T15:45:54.687Z,101192.25
2022-10-05T15:48:29.129Z,101201.88
2022-10-05T15:51:30.083Z,101215.78
2022-10-05T15:54:19.883Z,101217.56
2022-10-05T15:57:16.315Z,101234.25
2022-10-05T16:00:11.489Z,101235.09
2022-10-05T16:02:46.177Z,101241.25
2022-10-05T16:05:56.683Z,101233.38
2022-10-05T16:09:01.941Z,101245.72
2022-10-05T16:11:52.684Z,101254.50
2022-10-05T16:14:28.476Z,101255.44
2022-10-05T16:17:05.112Z,101258.34
2022-10-05T16:19:45.495Z,101261.63
2022-10-05T16:22:28.227Z,101266.88
2022-10-05T16:25:18.382Z,101261.66
2022-10-05T16:28:05.641Z,101280.13
2022-10-05T16:30:55.207Z,101276.78
2022-10-05T16:33:29.238Z,101277.81
2022-10-05T16:36:31.845Z,101294.50
2022-10-05T16:39:11.692Z,101304.16
2022-10-05T16:42:27.729Z,101311.22
2022-10-05T16:45:06.857Z,101317.44
2022-10-05T16:47:46.952Z,101322.03
2022-10-05T16:50:16.729Z,101334.16
2022-10-05T16:52:48.085Z,101322.22
2022-10-05T16:55:26.911Z,101340.44
2022-10-05T16:57:56.989Z,101344.06
2022-10-05T17:00:24.998Z,101358.16
2022-10-05T17:03:01.831Z,101367.91
2022-10-05T17:06:00.982Z,101374.94
2022-10-05T17:09:05.682Z,101375.03
2022-10-05T17:12:10.070Z,101383.03
2022-10-05T17:15:03.141Z,101384.00
2022-10-05T17:17:49.023Z,101392.84
2022-10-05T17:20:18.909Z,101394.66
2022-10-05T17:22:50.766Z,101393.91
2022-10-05T17:25:45.133Z,101404.44
2022-10-05T17:28:20.038Z,101400.38
2022-10-05T17:30:58.800Z,101398.84
2022-10-05T17:33:33.461Z,101410.31
2022-10-05T17:36:04.700Z,101418.28
2022-10-05T17:38:31.650Z,101418.50
2022-10-05T17:41:24.568Z,101430.78
2022-10-05T17:44:10.284Z,101437.94
2022-10-05T17:46:39.982Z,101440.72
2022-10-05T17:50:08.177Z,101441.75
2022-10-05T17:52:55.323Z,101441.88
2022-10-05T17:55:34.017Z,101438.53
2022-10-05T17:58:24.197Z,101448.16
2022-10-05T18:00:57.177Z,101459.69
2022-10-05T18:03:51.552Z,101464.13
2022-10-05T18:06:21.393Z,101457.22
2022-10-05T18:08:48.365Z,101447.75
2022-10-05T18:11:36.746Z,101448.59
2022-10-05T18:14:50.062Z,101463.41
2022-10-05T18:17:42.114Z,101447.75
2022-10-05T18:20:23.943Z,101455.63
2022-10-05T18:22:53.658Z,101447.78
2022-10-05T18:25:52.397Z,101457.44
2022-10-05T18:28:24.197Z,101446.13
2022-10-05T18:31:12.440Z,101464.56
2022-10-05T18:33:39.341Z,101457.66
2022-10-05T18:36:27.151Z,101462.97
2022-10-05T18:39:23.202Z,101462.09
2022-10-05T18:42:08.363Z,101455.28
2022-10-05T18:44:51.994Z,101462.31
2022-10-05T18:47:30.591Z,101453.72
2022-10-05T18:50:12.868Z,101459.81
2022-10-05T18:53:07.561Z,101449.53
2022-10-05T18:56:08.476Z,101448.72
2022-10-05T18:59:02.849Z,101461.03
2022-10-05T19:01:56.686Z,101458.53
2022-10-05T19:04:32.477Z,101459.50
2022-10-05T19:07:30.238Z,101457.75
2022-10-05T19:10:09.182Z,101460.56
2022-10-05T19:12:53.755Z,101458.13
2022-10-05T19:15:50.299Z,101470.34
2022-10-05T19:18:40.081Z,101473.13
2022-10-05T19:21:28.503Z,101472.31
2022-10-05T19:24:05.996Z,101480.28
2022-10-05T19:26:57.301Z,101482.13
2022-10-05T19:29:54.423Z,101480.50
2022-10-05T19:32:33.513Z,101481.41
2022-10-05T19:35:22.170Z,101477.03
2022-10-05T19:37:55.082Z,101474.47
2022-10-05T19:40:49.741Z,101483.22
2022-10-05T19:43:38.243Z,101485.06
2022-10-05T19:46:25.285Z,101475.47
2022-10-05T19:48:53.925Z,101479.81
2022-10-05T19:51:25.376Z,101489.38
2022-10-05T19:53:56.001Z,101478.09
2022-10-05T19:56:30.925Z,101479.81
2022-10-05T19:59:10.461Z,101478.06
2022-10-05T20:01:48.092Z,101499.03
2022-10-05T20:04:16.343Z,101497.34
2022-10-05T20:06:43.321Z,101489.41
2022-10-05T20:09:21.600Z,101499.88
2022-10-05T20:11:50.930Z,101507.72
2022-10-05T20:14:32.570Z,101502.56
2022-10-05T20:17:36.105Z,101503.50
2022-10-05T20:20:47.092Z,101510.41
2022-10-05T20:23:21.012Z,101515.75
2022-10-05T20:26:08.277Z,101521.03
2022-10-05T20:28:35.200Z,101519.31
2022-10-05T20:31:10.090Z,101519.44
2022-10-05T20:33:46.781Z,101532.47
2022-10-05T20:36:19.600Z,101537.72
2022-10-05T20:38:55.528Z,101538.66
2022-10-05T20:41:22.390Z,101556.88
2022-10-05T20:43:52.264Z,101555.13
2022-10-05T20:46:19.817Z,101561.16
2022-10-05T20:48:46.734Z,101562.06
2022-10-05T20:51:21.921Z,101563.78
2022-10-05T20:53:50.649Z,101575.09
2022-10-05T20:56:22.492Z,101574.25
2022-10-05T20:58:50.510Z,101568.34
2022-10-05T21:01:34.195Z,101581.28
2022-10-05T21:04:02.888Z,101588.28
2022-10-05T21:06:30.162Z,101584.00
2022-10-05T21:09:03.046Z,101594.31
2022-10-05T21:11:43.669Z,101596.03
2022-10-05T21:14:11.751Z,101605.66
2022-10-05T21:16:45.202Z,101601.31
2022-10-05T21:19:14.996Z,101607.34
2022-10-05T21:21:48.102Z,101616.06
2022-10-05T21:24:15.670Z,101612.59
2022-10-05T21:26:44.173Z,101617.75
2022-10-05T21:29:29.924Z,101621.28
2022-10-05T21:32:04.523Z,101623.09
2022-10-05T21:34:43.065Z,101624.75
2022-10-05T21:37:10.137Z,101636.97
2022-10-05T21:39:40.095Z,101632.72
2022-10-05T21:42:06.961Z,101637.00
2022-10-05T21:44:37.590Z,101661.41
2022-10-05T21:47:15.518Z,101686.63
2022-10-05T21:49:42.730Z,101698.88
2022-10-05T21:52:09.694Z,101686.78
2022-10-05T21:54:39.606Z,101694.66
2022-10-05T21:57:09.478Z,101704.28
2022-10-05T21:59:36.507Z,101703.47
2022-10-05T22:02:03.558Z,101702.59
2022-10-05T22:04:34.716Z,101706.94
2022-10-05T22:07:04.055Z,101703.53
2022-10-05T22:09:33.886Z,101714.03
2022-10-05T22:12:03.737Z,101715.81
2022-10-05T22:14:33.615Z,101721.16
2022-10-05T22:17:00.733Z,101725.47
2022-10-05T22:19:27.688Z,101730.06
2022-10-05T22:21:54.948Z,101744.06
2022-10-05T22:24:50.599Z,101750.06
2022-10-05T22:27:09.999Z,101759.66
2022-10-05T22:29:37.121Z,101767.56
2022-10-05T22:32:04.231Z,101779.78
2022-10-05T22:34:31.374Z,101783.31
2022-10-05T22:36:59.429Z,101779.94
2022-10-05T22:39:26.228Z,101788.63
2022-10-05T22:41:53.328Z,101793.09
2022-10-05T22:44:20.636Z,101793.09
2022-10-05T22:46:47.607Z,101794.84
2022-10-05T22:49:14.610Z,101807.16
2022-10-05T22:51:41.613Z,101814.22
2022-10-05T22:54:08.584Z,101822.97
2022-10-05T22:56:35.457Z,101823.03
2022-10-05T22:59:02.274Z,101820.50
2022-10-05T23:01:29.263Z,101831.91
2022-10-05T23:03:57.258Z,101880.81
2022-10-05T23:06:26.626Z,101899.25
2022-10-05T23:08:54.760Z,101915.06
2022-10-05T23:11:26.820Z,101931.69
2022-10-05T23:13:56.772Z,101937.88
2022-10-05T23:16:26.672Z,101931.91
2022-10-05T23:18:54.924Z,101941.59
2022-10-05T23:21:23.914Z,101943.50
2022-10-05T23:23:51.324Z,101954.94
2022-10-05T23:26:21.239Z,101950.81
2022-10-05T23:28:49.020Z,101949.19
2022-10-05T23:31:19.165Z,101955.38
2022-10-05T23:33:46.716Z,101952.91
2022-10-05T23:36:16.801Z,101946.94
2022-10-05T23:38:44.101Z,101957.44
2022-10-05T23:41:13.156Z,101955.84
2022-10-05T23:43:40.195Z,101950.75
2022-10-05T23:46:08.473Z,101955.19
2022-10-05T23:48:38.063Z,101954.44
2022-10-05T23:51:13.103Z,101959.81
2022-10-05T23:53:40.139Z,101965.97
2022-10-05T23:56:07.421Z,101977.38
2022-10-05T23:58:34.241Z,101981.81
